Time;durP1;ratioP1;P1;durP2;ratioP2;P2;SDS_P1;SDS_P2;PMS_P1;PMS_P2;Temp;Humidity;BMP_temperature;BMP_pressure;BME280_temperature;BME280_humidity;BME280_pressure;Samples;Min_cycle;Max_cycle;Signal;HPM_P1;HPM_P2
2023/05/31 00:03:52;;;;;;;11.90;4.38;;;;;;;;;;8345356;28;20061;-87
2023/05/31 00:07:55;;;;;;;8.15;4.53;;;;;;;;;;8342009;28;20055;-86
2023/05/31 00:11:58;;;;;;;10.30;4.95;;;;;;;;;;8342566;28;20481;-85
2023/05/31 00:16:01;;;;;;;8.18;4.68;;;;;;;;;;8341881;28;20101;-85
2023/05/31 00:20:06;;;;;;;10.20;5.10;;;;;;;;;;8335752;28;20069;-86
2023/05/31 00:24:09;;;;;;;7.32;4.75;;;;;;;;;;8348141;28;20124;-84
2023/05/31 00:28:12;;;;;;;11.75;5.53;;;;;;;;;;8353862;28;20075;-87
2023/05/31 00:32:14;;;;;;;9.85;4.93;;;;;;;;;;8341177;28;20054;-87
2023/05/31 00:36:19;;;;;;;10.20;4.50;;;;;;;;;;8347604;28;20147;-86
2023/05/31 00:40:22;;;;;;;8.40;4.60;;;;;;;;;;8334514;28;20465;-87
2023/05/31 00:44:24;;;;;;;9.38;5.10;;;;;;;;;;8328301;28;20564;-86
2023/05/31 00:48:27;;;;;;;11.45;5.80;;;;;;;;;;8354085;28;20055;-86
2023/05/31 00:52:33;;;;;;;9.55;5.00;;;;;;;;;;8327703;28;20132;-86
2023/05/31 00:56:36;;;;;;;11.82;5.60;;;;;;;;;;8341450;28;20056;-87
2023/05/31 01:00:39;;;;;;;10.70;4.88;;;;;;;;;;8336925;28;20117;-88
2023/05/31 01:04:41;;;;;;;7.72;4.70;;;;;;;;;;8340817;28;20128;-86
2023/05/31 01:08:47;;;;;;;13.95;5.50;;;;;;;;;;8336654;28;20508;-86
2023/05/31 01:12:59;;;;;;;10.93;5.88;;;;;;;;;;8352666;28;20153;-85
2023/05/31 01:17:14;;;;;;;11.80;5.15;;;;;;;;;;8346311;28;20041;-87
2023/05/31 01:21:19;;;;;;;9.10;4.55;;;;;;;;;;8346952;28;20547;-87
2023/05/31 01:25:32;;;;;;;9.73;5.50;;;;;;;;;;8351918;28;20128;-87
2023/05/31 01:29:40;;;;;;;9.95;4.80;;;;;;;;;;8358841;28;20453;-87
2023/05/31 01:33:44;;;;;;;10.02;4.90;;;;;;;;;;8360138;28;20041;-86
2023/05/31 01:37:46;;;;;;;11.80;5.30;;;;;;;;;;8341426;28;20073;-86
2023/05/31 01:41:52;;;;;;;8.00;4.18;;;;;;;;;;8351945;28;20048;-87
2023/05/31 01:45:58;;;;;;;8.45;5.18;;;;;;;;;;8333908;28;20041;-85
2023/05/31 01:50:01;;;;;;;13.38;4.93;;;;;;;;;;8345550;28;20055;-85
2023/05/31 01:54:04;;;;;;;12.10;5.15;;;;;;;;;;8327373;28;20041;-86
2023/05/31 01:58:08;;;;;;;9.40;5.20;;;;;;;;;;8344718;28;20064;-87
2023/05/31 02:02:13;;;;;;;10.65;5.72;;;;;;;;;;8332246;28;20477;-87
2023/05/31 02:06:16;;;;;;;11.63;5.50;;;;;;;;;;8352797;28;20049;-87
2023/05/31 02:10:19;;;;;;;10.38;5.13;;;;;;;;;;8343133;28;20047;-85
2023/05/31 02:14:22;;;;;;;11.57;5.38;;;;;;;;;;8346498;28;20614;-86
2023/05/31 02:18:27;;;;;;;13.07;5.72;;;;;;;;;;8357507;28;20049;-86
2023/05/31 02:22:30;;;;;;;10.27;5.03;;;;;;;;;;8338869;28;20042;-88
2023/05/31 02:26:33;;;;;;;10.20;5.03;;;;;;;;;;8352570;28;20041;-84
2023/05/31 02:30:38;;;;;;;13.85;5.90;;;;;;;;;;8325567;28;20068;-86
2023/05/31 02:34:42;;;;;;;9.50;5.65;;;;;;;;;;8332012;28;20045;-88
2023/05/31 02:38:46;;;;;;;11.52;6.43;;;;;;;;;;8344403;28;20611;-88
2023/05/31 02:42:49;;;;;;;13.15;5.75;;;;;;;;;;8345188;28;20051;-87
2023/05/31 02:46:51;;;;;;;10.95;5.75;;;;;;;;;;8344377;28;20049;-86
2023/05/31 02:50:56;;;;;;;26.80;9.50;;;;;;;;;;8344953;28;20045;-87
2023/05/31 02:54:58;;;;;;;24.42;9.20;;;;;;;;;;8343671;28;20074;-88
2023/05/31 02:59:02;;;;;;;9.88;5.32;;;;;;;;;;8357442;28;20045;-86
2023/05/31 03:03:05;;;;;;;9.63;5.13;;;;;;;;;;8343408;28;20167;-86
2023/05/31 03:07:09;;;;;;;9.88;4.97;;;;;;;;;;8338564;28;20053;-86
2023/05/31 03:11:12;;;;;;;8.35;4.97;;;;;;;;;;8325275;28;20053;-86
2023/05/31 03:15:18;;;;;;;9.32;5.30;;;;;;;;;;8331967;28;20045;-86
2023/05/31 03:19:23;;;;;;;9.40;5.10;;;;;;;;;;8342962;28;20041;-86
2023/05/31 03:23:28;;;;;;;10.13;4.97;;;;;;;;;;8344858;28;20049;-87
2023/05/31 03:27:31;;;;;;;15.50;5.93;;;;;;;;;;8342883;28;20049;-89
2023/05/31 03:31:34;;;;;;;12.02;5.50;;;;;;;;;;8311512;28;20049;-85
2023/05/31 03:35:37;;;;;;;12.18;5.65;;;;;;;;;;8342600;28;20040;-88
2023/05/31 03:39:41;;;;;;;9.60;5.88;;;;;;;;;;8353061;28;20131;-86
2023/05/31 03:43:45;;;;;;;10.85;6.85;;;;;;;;;;8334897;28;20049;-90
2023/05/31 03:47:49;;;;;;;20.30;12.18;;;;;;;;;;8338198;28;20559;-89
2023/05/31 03:51:52;;;;;;;14.32;7.82;;;;;;;;;;8329769;28;20077;-87
2023/05/31 03:55:56;;;;;;;11.13;5.72;;;;;;;;;;8351455;28;20055;-88
2023/05/31 04:00:00;;;;;;;13.07;6.10;;;;;;;;;;8348753;28;20048;-86
2023/05/31 04:04:03;;;;;;;17.02;7.30;;;;;;;;;;8362147;28;20120;-86
2023/05/31 04:08:06;;;;;;;11.13;5.53;;;;;;;;;;8348467;28;20045;-85
2023/05/31 04:12:10;;;;;;;12.68;6.07;;;;;;;;;;8354152;28;20073;-92
2023/05/31 04:16:13;;;;;;;14.70;7.57;;;;;;;;;;8331486;28;20123;-90
2023/05/31 04:20:18;;;;;;;13.32;7.57;;;;;;;;;;8362179;28;20076;-86
2023/05/31 04:24:21;;;;;;;9.90;6.13;;;;;;;;;;8346438;28;20124;-84
2023/05/31 04:28:25;;;;;;;16.92;7.20;;;;;;;;;;8342126;28;20098;-90
2023/05/31 04:32:29;;;;;;;15.88;8.60;;;;;;;;;;8341699;28;20045;-87
2023/05/31 04:36:35;;;;;;;17.02;8.50;;;;;;;;;;8349918;28;20057;-87
2023/05/31 04:40:40;;;;;;;15.50;8.05;;;;;;;;;;8361301;28;20045;-88
2023/05/31 04:44:45;;;;;;;15.50;7.22;;;;;;;;;;8361180;28;20404;-86
2023/05/31 04:48:49;;;;;;;12.52;6.18;;;;;;;;;;8333858;28;20500;-89
2023/05/31 04:52:52;;;;;;;11.32;5.80;;;;;;;;;;8347288;28;20484;-87
2023/05/31 04:56:55;;;;;;;11.55;5.72;;;;;;;;;;8329511;28;20045;-86
2023/05/31 05:01:00;;;;;;;9.82;5.25;;;;;;;;;;8360370;28;20174;-88
2023/05/31 05:05:05;;;;;;;12.90;6.25;;;;;;;;;;8347082;28;20044;-89
2023/05/31 05:09:09;;;;;;;10.90;5.57;;;;;;;;;;8336687;28;20181;-90
2023/05/31 05:13:15;;;;;;;8.20;4.82;;;;;;;;;;8344017;28;20119;-94
2023/05/31 05:17:20;;;;;;;10.82;4.43;;;;;;;;;;8346812;28;20553;-90
2023/05/31 05:21:23;;;;;;;8.07;2.90;;;;;;;;;;8346722;28;20053;-89
2023/05/31 05:25:26;;;;;;;8.57;2.90;;;;;;;;;;8346208;28;20045;-89
2023/05/31 05:29:29;;;;;;;5.45;3.05;;;;;;;;;;8341691;28;20075;-89
2023/05/31 05:33:35;;;;;;;5.32;3.25;;;;;;;;;;8340005;28;20073;-89
2023/05/31 05:37:38;;;;;;;5.57;2.50;;;;;;;;;;8340421;28;20568;-90
2023/05/31 05:41:41;;;;;;;4.57;2.67;;;;;;;;;;8350124;28;20052;-91
2023/05/31 05:45:45;;;;;;;7.78;2.75;;;;;;;;;;8337553;28;20130;-89
2023/05/31 05:49:53;;;;;;;5.75;2.40;;;;;;;;;;8337574;28;20504;-91
2023/05/31 05:53:56;;;;;;;9.43;2.75;;;;;;;;;;8345847;28;20480;-90
2023/05/31 05:58:00;;;;;;;7.28;2.70;;;;;;;;;;8347248;28;20128;-95
2023/05/31 06:02:03;;;;;;;5.95;2.50;;;;;;;;;;8313865;28;20041;-89
2023/05/31 06:06:10;;;;;;;7.40;2.72;;;;;;;;;;8333705;28;20050;-91
2023/05/31 06:10:16;;;;;;;4.60;2.55;;;;;;;;;;8352577;28;20118;-90
2023/05/31 06:14:19;;;;;;;4.55;2.10;;;;;;;;;;8339753;28;20046;-89
2023/05/31 06:18:24;;;;;;;6.68;2.42;;;;;;;;;;8408324;28;20094;-90
2023/05/31 06:22:31;;;;;;;4.55;2.33;;;;;;;;;;8353081;28;20045;-90
2023/05/31 06:26:35;;;;;;;7.45;2.15;;;;;;;;;;8333244;28;20041;-90
2023/05/31 06:30:41;;;;;;;5.38;2.22;;;;;;;;;;8344353;28;20068;-89
2023/05/31 06:34:47;;;;;;;4.38;2.13;;;;;;;;;;8325977;28;20061;-90
2023/05/31 06:38:56;;;;;;;4.22;2.30;;;;;;;;;;8403604;28;20052;-93
2023/05/31 06:42:59;;;;;;;4.88;2.22;;;;;;;;;;8434894;28;20484;-90
2023/05/31 06:47:02;;;;;;;5.88;2.10;;;;;;;;;;8443136;28;20597;-91
2023/05/31 06:51:05;;;;;;;5.15;2.40;;;;;;;;;;8443900;28;20044;-90
2023/05/31 06:55:13;;;;;;;3.55;2.00;;;;;;;;;;8445869;28;20126;-90
2023/05/31 06:59:16;;;;;;;5.75;2.30;;;;;;;;;;8439881;28;20048;-90
2023/05/31 07:03:19;;;;;;;5.38;2.20;;;;;;;;;;8432837;28;20490;-90
2023/05/31 07:07:22;;;;;;;5.63;2.25;;;;;;;;;;8439763;28;20097;-91
2023/05/31 07:11:31;;;;;;;5.68;2.53;;;;;;;;;;8451240;28;20043;-95
2023/05/31 07:15:37;;;;;;;6.40;2.60;;;;;;;;;;8444869;28;20052;-92
2023/05/31 07:19:51;;;;;;;6.10;2.53;;;;;;;;;;8440085;28;20067;-90
2023/05/31 07:23:55;;;;;;;6.40;2.60;;;;;;;;;;8470451;28;20044;-94
2023/05/31 07:28:00;;;;;;;6.65;2.47;;;;;;;;;;8443904;28;20448;-91
2023/05/31 07:32:03;;;;;;;3.53;2.00;;;;;;;;;;8442675;28;20059;-89
2023/05/31 07:36:07;;;;;;;3.67;1.83;;;;;;;;;;8421471;28;20148;-92
2023/05/31 07:40:15;;;;;;;4.55;1.75;;;;;;;;;;8356512;28;20127;-92
2023/05/31 07:44:24;;;;;;;3.38;1.77;;;;;;;;;;8327835;28;20060;-92
2023/05/31 07:48:28;;;;;;;3.67;1.70;;;;;;;;;;8314381;28;20136;-91
2023/05/31 07:52:31;;;;;;;3.63;1.60;;;;;;;;;;8330652;28;20302;-91
2023/05/31 07:56:34;;;;;;;7.75;2.20;;;;;;;;;;8343433;28;20046;-89
2023/05/31 08:00:41;;;;;;;5.70;1.92;;;;;;;;;;8343078;28;20055;-90
2023/05/31 08:04:44;;;;;;;4.80;1.85;;;;;;;;;;8343770;28;20045;-91
2023/05/31 08:08:47;;;;;;;3.05;1.73;;;;;;;;;;8331377;28;20438;-90
2023/05/31 08:12:50;;;;;;;3.63;1.70;;;;;;;;;;8343830;28;20051;-89
2023/05/31 08:16:56;;;;;;;3.50;1.80;;;;;;;;;;8330802;28;20041;-91
2023/05/31 08:20:59;;;;;;;4.05;1.85;;;;;;;;;;8344628;28;20045;-89
2023/05/31 08:25:02;;;;;;;6.20;1.85;;;;;;;;;;8352288;28;20117;-90
2023/05/31 08:29:07;;;;;;;3.60;1.70;;;;;;;;;;8349526;28;20127;-90
2023/05/31 08:33:12;;;;;;;5.63;1.88;;;;;;;;;;8351528;28;20053;-91
2023/05/31 08:37:16;;;;;;;6.68;1.67;;;;;;;;;;8361654;28;20139;-90
2023/05/31 08:41:20;;;;;;;4.72;1.80;;;;;;;;;;8311977;28;20049;-90
2023/05/31 08:45:24;;;;;;;6.10;2.03;;;;;;;;;;8326133;28;20049;-90
2023/05/31 08:49:30;;;;;;;6.53;1.77;;;;;;;;;;8344307;28;20086;-95
2023/05/31 08:53:35;;;;;;;5.40;1.92;;;;;;;;;;8344371;28;20121;-89
2023/05/31 08:57:41;;;;;;;3.90;1.77;;;;;;;;;;8342511;28;20038;-91
2023/05/31 09:01:45;;;;;;;3.85;1.90;;;;;;;;;;8316089;28;20044;-89
2023/05/31 09:05:51;;;;;;;3.78;2.00;;;;;;;;;;8339172;28;20049;-90
2023/05/31 09:09:54;;;;;;;5.47;2.20;;;;;;;;;;8331815;28;20059;-90
2023/05/31 09:13:58;;;;;;;6.57;2.10;;;;;;;;;;8348876;28;20053;-89
2023/05/31 09:18:15;;;;;;;2.88;1.83;;;;;;;;;;8335178;28;20048;-91
2023/05/31 09:22:23;;;;;;;3.08;1.77;;;;;;;;;;8352078;28;20041;-90
2023/05/31 09:26:48;;;;;;;3.70;1.98;;;;;;;;;;8338502;28;20049;-93
2023/05/31 09:31:04;;;;;;;3.38;1.90;;;;;;;;;;8341121;28;20128;-90
2023/05/31 09:35:14;;;;;;;3.95;1.88;;;;;;;;;;8312691;28;20056;-89
2023/05/31 09:39:19;;;;;;;3.45;1.80;;;;;;;;;;8359779;28;20132;-90
2023/05/31 09:43:22;;;;;;;4.32;1.73;;;;;;;;;;8347979;28;20053;-91
2023/05/31 09:47:26;;;;;;;4.55;1.70;;;;;;;;;;8347192;28;20045;-88
2023/05/31 09:51:32;;;;;;;4.88;1.92;;;;;;;;;;8351283;28;20052;-89
2023/05/31 09:55:43;;;;;;;5.25;2.05;;;;;;;;;;8355564;28;20433;-89
2023/05/31 10:04:04;;;;;;;7.80;2.40;;;;;;;;;;8327126;28;20084;-91
2023/05/31 10:08:07;;;;;;;6.85;2.10;;;;;;;;;;8342501;28;20453;-88
2023/05/31 10:12:18;;;;;;;3.45;1.80;;;;;;;;;;8339542;28;20057;-94
2023/05/31 10:16:28;;;;;;;3.95;1.45;;;;;;;;;;8354688;28;20094;-92
2023/05/31 10:20:39;;;;;;;4.63;2.00;;;;;;;;;;8354335;28;20519;-94
2023/05/31 10:24:53;;;;;;;5.63;1.77;;;;;;;;;;8350003;28;20069;-94
2023/05/31 10:29:05;;;;;;;6.40;1.77;;;;;;;;;;8365952;28;20082;-92
2023/05/31 10:33:12;;;;;;;6.90;2.03;;;;;;;;;;8366124;28;20041;-91
2023/05/31 10:37:18;;;;;;;5.95;2.00;;;;;;;;;;8347329;28;20085;-95
2023/05/31 10:41:25;;;;;;;5.32;1.80;;;;;;;;;;8364017;28;20124;-90
2023/05/31 10:45:36;;;;;;;4.78;1.90;;;;;;;;;;8353759;28;20074;-94
2023/05/31 10:49:44;;;;;;;2.27;1.60;;;;;;;;;;8345048;28;20049;-94
2023/05/31 10:53:48;;;;;;;7.85;2.00;;;;;;;;;;8365229;28;20043;-93
2023/05/31 10:57:54;;;;;;;7.03;2.10;;;;;;;;;;8358747;28;20041;-90
2023/05/31 11:02:00;;;;;;;5.75;1.83;;;;;;;;;;8377351;28;20052;-91
2023/05/31 11:06:06;;;;;;;3.85;1.48;;;;;;;;;;8360508;28;20069;-89
2023/05/31 11:10:10;;;;;;;3.70;1.98;;;;;;;;;;8343362;28;20112;-90
2023/05/31 11:14:27;;;;;;;6.75;1.95;;;;;;;;;;8352328;28;20051;-91
2023/05/31 11:18:42;;;;;;;4.38;1.80;;;;;;;;;;8345359;28;20045;-90
2023/05/31 11:22:45;;;;;;;4.65;2.00;;;;;;;;;;8337597;28;20060;-91
2023/05/31 11:26:55;;;;;;;3.75;1.70;;;;;;;;;;8349821;28;20438;-91
2023/05/31 11:30:58;;;;;;;2.88;1.80;;;;;;;;;;8336374;28;20044;-91
2023/05/31 11:35:04;;;;;;;3.30;1.90;;;;;;;;;;8372862;28;20128;-93
2023/05/31 11:39:08;;;;;;;3.92;1.70;;;;;;;;;;8317137;28;20065;-93
2023/05/31 11:43:17;;;;;;;4.82;1.88;;;;;;;;;;8315178;28;20056;-94
2023/05/31 11:47:26;;;;;;;4.50;1.95;;;;;;;;;;8335134;28;20057;-89
2023/05/31 11:51:33;;;;;;;3.85;1.60;;;;;;;;;;8331695;28;20049;-89
2023/05/31 11:55:36;;;;;;;3.92;1.60;;;;;;;;;;8338220;28;20065;-90
2023/05/31 11:59:42;;;;;;;3.38;1.60;;;;;;;;;;8325013;28;20049;-93
2023/05/31 12:03:45;;;;;;;3.58;1.52;;;;;;;;;;8319394;28;20045;-94
2023/05/31 12:08:00;;;;;;;2.95;1.48;;;;;;;;;;8322011;28;20076;-93
2023/05/31 12:12:07;;;;;;;2.60;1.45;;;;;;;;;;8319637;28;20049;-94
2023/05/31 12:16:10;;;;;;;4.20;2.08;;;;;;;;;;8320740;28;20053;-89
2023/05/31 12:20:30;;;;;;;5.00;1.60;;;;;;;;;;8317834;28;20046;-89
2023/05/31 12:24:40;;;;;;;5.57;1.98;;;;;;;;;;8321303;28;20052;-94
2023/05/31 12:28:49;;;;;;;2.33;1.52;;;;;;;;;;8324402;28;20050;-89
2023/05/31 12:32:55;;;;;;;3.80;1.77;;;;;;;;;;8327198;28;20041;-90
2023/05/31 12:36:59;;;;;;;4.97;1.60;;;;;;;;;;8336125;28;20141;-94
2023/05/31 12:41:05;;;;;;;2.22;1.48;;;;;;;;;;8344237;28;20085;-88
2023/05/31 12:45:15;;;;;;;4.80;1.80;;;;;;;;;;8332637;28;20053;-90
2023/05/31 12:49:23;;;;;;;2.80;1.70;;;;;;;;;;8340879;28;20043;-91
2023/05/31 12:53:30;;;;;;;3.22;1.50;;;;;;;;;;8366150;28;20484;-91
2023/05/31 12:57:36;;;;;;;4.32;1.80;;;;;;;;;;8358972;28;20041;-88
2023/05/31 13:01:43;;;;;;;3.58;1.63;;;;;;;;;;8339889;28;20148;-94
2023/05/31 13:05:46;;;;;;;3.80;1.77;;;;;;;;;;8359278;28;20041;-89
2023/05/31 13:09:49;;;;;;;3.35;1.90;;;;;;;;;;8356626;28;20053;-89
2023/05/31 13:13:54;;;;;;;3.45;2.03;;;;;;;;;;8358388;28;20046;-91
2023/05/31 13:17:57;;;;;;;3.05;1.50;;;;;;;;;;8350810;28;20080;-89
2023/05/31 13:22:09;;;;;;;7.03;2.00;;;;;;;;;;8363439;28;20041;-91
2023/05/31 13:26:12;;;;;;;2.55;1.50;;;;;;;;;;8360971;28;20104;-89
2023/05/31 13:30:23;;;;;;;4.72;1.83;;;;;;;;;;8346506;28;20041;-90
2023/05/31 13:34:28;;;;;;;3.75;2.03;;;;;;;;;;8373593;28;20044;-94
2023/05/31 13:38:32;;;;;;;3.65;2.00;;;;;;;;;;8361953;28;20053;-92
2023/05/31 13:42:35;;;;;;;3.13;1.60;;;;;;;;;;8354387;28;20059;-89
2023/05/31 13:46:47;;;;;;;2.58;1.70;;;;;;;;;;8351100;28;20053;-92
2023/05/31 13:50:51;;;;;;;5.57;1.75;;;;;;;;;;8367821;28;20041;-94
2023/05/31 13:55:00;;;;;;;5.63;1.98;;;;;;;;;;8349457;28;20503;-93
2023/05/31 13:59:03;;;;;;;3.38;1.73;;;;;;;;;;8335364;28;20041;-94
2023/05/31 14:03:10;;;;;;;2.33;1.48;;;;;;;;;;8333696;28;20485;-94
2023/05/31 14:07:13;;;;;;;5.40;1.90;;;;;;;;;;8320964;28;20382;-88
2023/05/31 14:11:17;;;;;;;7.93;1.90;;;;;;;;;;8357533;28;20097;-90
2023/05/31 14:15:20;;;;;;;4.47;1.65;;;;;;;;;;8351450;28;20084;-88
2023/05/31 14:19:27;;;;;;;3.90;1.90;;;;;;;;;;8356574;28;20049;-94
2023/05/31 14:23:31;;;;;;;5.85;2.30;;;;;;;;;;8354234;28;20041;-89
2023/05/31 14:27:35;;;;;;;5.78;2.50;;;;;;;;;;8337136;28;20079;-91
2023/05/31 14:31:38;;;;;;;3.78;1.73;;;;;;;;;;8351279;28;20120;-93
2023/05/31 14:35:50;;;;;;;4.03;1.83;;;;;;;;;;8357735;28;20041;-92
2023/05/31 14:39:54;;;;;;;3.95;1.60;;;;;;;;;;8352098;28;20109;-89
2023/05/31 14:43:56;;;;;;;3.90;1.83;;;;;;;;;;8313767;28;20041;-93
2023/05/31 14:47:59;;;;;;;7.75;1.85;;;;;;;;;;8359927;28;20128;-90
2023/05/31 14:52:07;;;;;;;3.67;1.80;;;;;;;;;;8343705;28;20541;-88
2023/05/31 14:56:13;;;;;;;4.30;1.70;;;;;;;;;;8344791;28;20130;-91
2023/05/31 15:00:16;;;;;;;4.03;1.67;;;;;;;;;;8358405;28;20049;-89
2023/05/31 15:04:19;;;;;;;3.40;1.70;;;;;;;;;;8354571;28;20475;-93
2023/05/31 15:08:24;;;;;;;4.45;1.83;;;;;;;;;;8349904;28;20125;-87
2023/05/31 15:12:29;;;;;;;5.18;1.90;;;;;;;;;;8338832;28;20075;-89
2023/05/31 15:16:36;;;;;;;3.90;1.60;;;;;;;;;;8330464;28;20045;-90
2023/05/31 15:20:41;;;;;;;5.82;2.22;;;;;;;;;;8359627;28;20076;-87
2023/05/31 15:24:48;;;;;;;4.90;1.95;;;;;;;;;;8311618;28;20128;-89
2023/05/31 15:28:52;;;;;;;14.13;2.30;;;;;;;;;;8331243;28;20049;-91
2023/05/31 15:32:54;;;;;;;2.17;1.60;;;;;;;;;;8364968;28;20053;-91
2023/05/31 15:36:57;;;;;;;2.20;1.70;;;;;;;;;;8350209;28;20091;-88
2023/05/31 15:41:02;;;;;;;4.65;1.95;;;;;;;;;;8345023;28;20045;-90
2023/05/31 15:45:06;;;;;;;6.07;2.70;;;;;;;;;;8344672;28;20054;-90
2023/05/31 15:49:08;;;;;;;7.95;2.35;;;;;;;;;;8330812;28;20116;-88
2023/05/31 15:53:11;;;;;;;3.75;1.65;;;;;;;;;;8344984;28;20078;-89
2023/05/31 15:57:16;;;;;;;6.32;1.90;;;;;;;;;;8344159;28;20132;-88
2023/05/31 16:01:19;;;;;;;4.15;1.60;;;;;;;;;;8343151;28;20062;-90
2023/05/31 16:05:22;;;;;;;4.63;1.98;;;;;;;;;;8345304;28;20198;-90
2023/05/31 16:09:25;;;;;;;4.07;1.67;;;;;;;;;;8356539;28;20049;-88
2023/05/31 16:13:32;;;;;;;2.78;1.63;;;;;;;;;;8330667;28;20071;-88
2023/05/31 16:17:35;;;;;;;3.47;1.70;;;;;;;;;;8326907;28;20135;-89
2023/05/31 16:21:41;;;;;;;3.85;1.80;;;;;;;;;;8330376;28;20045;-90
2023/05/31 16:25:44;;;;;;;3.42;1.83;;;;;;;;;;8356740;28;20102;-89
2023/05/31 16:29:48;;;;;;;3.80;1.77;;;;;;;;;;8336730;28;20049;-92
2023/05/31 16:33:51;;;;;;;6.57;2.00;;;;;;;;;;8335502;28;20434;-88
2023/05/31 16:37:54;;;;;;;5.45;2.15;;;;;;;;;;8348651;28;20081;-87
2023/05/31 16:41:57;;;;;;;3.75;1.70;;;;;;;;;;8348373;28;20068;-88
2023/05/31 16:46:02;;;;;;;6.72;1.70;;;;;;;;;;8341680;28;20076;-88
2023/05/31 16:50:07;;;;;;;3.75;1.63;;;;;;;;;;8333789;22;20102;-95
2023/05/31 16:54:10;;;;;;;3.53;1.80;;;;;;;;;;8399536;28;20504;-90
2023/05/31 16:58:13;;;;;;;5.00;1.80;;;;;;;;;;8398796;28;20072;-92
2023/05/31 17:02:18;;;;;;;3.92;2.00;;;;;;;;;;8398506;28;20144;-89
2023/05/31 17:06:22;;;;;;;3.60;2.05;;;;;;;;;;8398648;28;20044;-87
2023/05/31 17:10:25;;;;;;;6.03;2.15;;;;;;;;;;8399028;28;20071;-91
2023/05/31 17:14:28;;;;;;;3.17;1.70;;;;;;;;;;8398667;28;20449;-88
2023/05/31 17:18:32;;;;;;;6.55;2.58;;;;;;;;;;8398333;28;20480;-87
2023/05/31 17:22:35;;;;;;;4.57;1.83;;;;;;;;;;8397410;28;20064;-87
2023/05/31 17:26:39;;;;;;;3.08;1.80;;;;;;;;;;8397516;28;20098;-87
2023/05/31 17:30:41;;;;;;;5.50;1.90;;;;;;;;;;8398005;28;20166;-86
2023/05/31 17:34:49;;;;;;;5.97;2.30;;;;;;;;;;8398041;28;20125;-89
2023/05/31 17:38:52;;;;;;;4.32;2.10;;;;;;;;;;8397861;28;20068;-88
2023/05/31 17:42:55;;;;;;;5.45;2.28;;;;;;;;;;8397991;28;20044;-87
2023/05/31 17:46:57;;;;;;;9.07;2.88;;;;;;;;;;8380654;28;20049;-87
2023/05/31 17:51:02;;;;;;;4.65;2.40;;;;;;;;;;8397141;28;20056;-89
2023/05/31 17:55:07;;;;;;;7.65;2.35;;;;;;;;;;8396699;28;20044;-89
2023/05/31 17:59:10;;;;;;;5.22;2.35;;;;;;;;;;8397243;28;20123;-87
2023/05/31 18:03:13;;;;;;;5.40;2.58;;;;;;;;;;8396840;28;20044;-90
2023/05/31 18:07:18;;;;;;;5.55;2.60;;;;;;;;;;8380262;28;20147;-88
2023/05/31 18:11:22;;;;;;;3.88;2.13;;;;;;;;;;8396570;28;20123;-87
2023/05/31 18:15:25;;;;;;;4.95;2.72;;;;;;;;;;8396834;28;20124;-88
2023/05/31 18:19:29;;;;;;;7.25;3.05;;;;;;;;;;8396813;28;20048;-90
2023/05/31 18:23:34;;;;;;;6.50;2.75;;;;;;;;;;8396756;28;20068;-87
2023/05/31 18:27:37;;;;;;;7.75;2.67;;;;;;;;;;8396864;28;20056;-87
2023/05/31 18:31:40;;;;;;;6.28;3.22;;;;;;;;;;8396421;28;20419;-89
2023/05/31 18:35:44;;;;;;;34.70;12.70;;;;;;;;;;8396817;28;20044;-88
2023/05/31 18:39:49;;;;;;;31.65;10.05;;;;;;;;;;8396431;28;20123;-87
2023/05/31 18:43:54;;;;;;;16.67;6.57;;;;;;;;;;8396109;28;20137;-87
2023/05/31 18:47:58;;;;;;;17.85;6.50;;;;;;;;;;8355941;28;20064;-88
2023/05/31 18:52:01;;;;;;;21.50;11.25;;;;;;;;;;8392488;28;20049;-87
2023/05/31 18:56:06;;;;;;;22.60;9.85;;;;;;;;;;8396098;28;20392;-86
2023/05/31 19:00:10;;;;;;;24.85;8.82;;;;;;;;;;8396257;28;20049;-87
2023/05/31 19:04:13;;;;;;;13.40;4.97;;;;;;;;;;8373960;28;20139;-87
2023/05/31 19:08:19;;;;;;;13.05;4.03;;;;;;;;;;8402755;28;20049;-87
2023/05/31 19:12:23;;;;;;;12.50;3.92;;;;;;;;;;8385230;28;20404;-88
2023/05/31 19:16:26;;;;;;;16.80;5.75;;;;;;;;;;8402827;28;20099;-91
2023/05/31 19:20:29;;;;;;;13.18;4.90;;;;;;;;;;8399254;28;20519;-86
2023/05/31 19:24:33;;;;;;;11.70;4.30;;;;;;;;;;8385892;28;20056;-90
2023/05/31 19:28:37;;;;;;;16.75;4.95;;;;;;;;;;8389328;28;20048;-88
2023/05/31 19:32:43;;;;;;;73.90;13.80;;;;;;;;;;8402468;28;20047;-87
2023/05/31 19:36:47;;;;;;;124.45;27.88;;;;;;;;;;8402067;28;20048;-90
2023/05/31 19:40:50;;;;;;;8.23;4.00;;;;;;;;;;8401650;28;20040;-88
2023/05/31 19:44:55;;;;;;;10.77;4.90;;;;;;;;;;8401536;28;20061;-88
2023/05/31 19:49:00;;;;;;;37.92;23.25;;;;;;;;;;8400448;28;20377;-88
2023/05/31 19:53:03;;;;;;;11.85;4.63;;;;;;;;;;8401861;28;20135;-87
2023/05/31 19:57:07;;;;;;;7.03;3.45;;;;;;;;;;8400329;28;20480;-85
2023/05/31 20:01:12;;;;;;;7.95;3.33;;;;;;;;;;8381909;28;20048;-87
2023/05/31 20:05:15;;;;;;;9.77;3.83;;;;;;;;;;8399985;28;20044;-86
2023/05/31 20:09:18;;;;;;;12.07;3.55;;;;;;;;;;8401167;28;20048;-86
2023/05/31 20:13:22;;;;;;;9.10;4.55;;;;;;;;;;8400760;28;20381;-86
2023/05/31 20:17:27;;;;;;;13.73;9.00;;;;;;;;;;8400035;28;20251;-86
2023/05/31 20:21:30;;;;;;;19.65;10.18;;;;;;;;;;8400769;28;20045;-87
2023/05/31 20:25:33;;;;;;;10.43;5.68;;;;;;;;;;8400898;28;20044;-87
2023/05/31 20:29:37;;;;;;;5.18;3.30;;;;;;;;;;8400494;28;20045;-87
2023/05/31 20:33:44;;;;;;;8.88;3.35;;;;;;;;;;8400377;28;20048;-87
2023/05/31 20:37:47;;;;;;;7.53;3.67;;;;;;;;;;8400473;28;20480;-90
2023/05/31 20:41:51;;;;;;;6.13;3.38;;;;;;;;;;8383235;28;20044;-92
2023/05/31 20:45:54;;;;;;;7.30;3.70;;;;;;;;;;8399852;28;20114;-86
2023/05/31 20:49:58;;;;;;;7.45;3.38;;;;;;;;;;8400632;28;20059;-86
2023/05/31 20:54:01;;;;;;;8.27;3.85;;;;;;;;;;8398984;28;20045;-89
2023/05/31 20:58:04;;;;;;;4.88;3.20;;;;;;;;;;8400072;28;20051;-89
2023/05/31 21:02:10;;;;;;;7.45;3.33;;;;;;;;;;8399148;28;20047;-86
2023/05/31 21:06:15;;;;;;;8.68;3.60;;;;;;;;;;8398905;28;20477;-85
2023/05/31 21:10:18;;;;;;;8.82;3.40;;;;;;;;;;8390850;28;20044;-91
2023/05/31 21:14:21;;;;;;;7.63;3.70;;;;;;;;;;8398897;28;20515;-87
2023/05/31 21:18:25;;;;;;;8.15;4.05;;;;;;;;;;8397675;28;20044;-86
2023/05/31 21:22:29;;;;;;;6.13;3.58;;;;;;;;;;8398340;28;20624;-86
2023/05/31 21:26:32;;;;;;;6.82;3.20;;;;;;;;;;8397800;28;20055;-85
2023/05/31 21:30:35;;;;;;;8.75;4.20;;;;;;;;;;8397573;28;20051;-89
2023/05/31 21:34:38;;;;;;;8.05;3.67;;;;;;;;;;8398343;28;20130;-86
2023/05/31 21:38:43;;;;;;;6.43;4.00;;;;;;;;;;8398349;28;20399;-86
2023/05/31 21:42:46;;;;;;;6.68;3.67;;;;;;;;;;8385090;28;20047;-92
2023/05/31 21:46:52;;;;;;;7.43;4.20;;;;;;;;;;8397990;28;20099;-87
2023/05/31 21:50:55;;;;;;;11.50;4.55;;;;;;;;;;8384976;28;20048;-85
2023/05/31 21:55:00;;;;;;;7.95;3.65;;;;;;;;;;8380522;28;20080;-86
2023/05/31 21:59:03;;;;;;;7.47;3.65;;;;;;;;;;8397449;28;20519;-87
2023/05/31 22:03:06;;;;;;;6.18;3.70;;;;;;;;;;8396738;28;20048;-87
2023/05/31 22:07:10;;;;;;;7.40;4.13;;;;;;;;;;8397376;28;20514;-86
2023/05/31 22:11:13;;;;;;;7.85;4.43;;;;;;;;;;8379346;28;20044;-86
2023/05/31 22:15:17;;;;;;;12.35;5.68;;;;;;;;;;8397072;28;20045;-90
2023/05/31 22:19:25;;;;;;;8.13;4.88;;;;;;;;;;8396803;28;20079;-86
2023/05/31 22:23:28;;;;;;;9.50;4.90;;;;;;;;;;8380106;28;20743;-85
2023/05/31 22:27:32;;;;;;;12.13;4.60;;;;;;;;;;8396957;28;20054;-85
2023/05/31 22:31:35;;;;;;;8.80;4.22;;;;;;;;;;8397241;28;20048;-86
2023/05/31 22:35:38;;;;;;;10.00;4.75;;;;;;;;;;8379246;28;20048;-85
2023/05/31 22:39:41;;;;;;;14.63;5.05;;;;;;;;;;8396739;28;20408;-86
2023/05/31 22:43:45;;;;;;;8.77;4.13;;;;;;;;;;8385371;28;20047;-86
2023/05/31 22:47:49;;;;;;;9.63;5.22;;;;;;;;;;8372535;28;20056;-86
2023/05/31 22:51:52;;;;;;;10.98;5.00;;;;;;;;;;8387137;28;20053;-86
2023/05/31 22:55:55;;;;;;;10.55;5.05;;;;;;;;;;8396433;28;20389;-86
2023/05/31 23:00:00;;;;;;;9.95;4.65;;;;;;;;;;8397054;28;20162;-89
2023/05/31 23:04:05;;;;;;;8.57;4.22;;;;;;;;;;8395820;28;20040;-89
2023/05/31 23:08:09;;;;;;;12.23;5.00;;;;;;;;;;8396417;28;20044;-92
2023/05/31 23:12:12;;;;;;;11.02;5.30;;;;;;;;;;8370414;28;20068;-87
2023/05/31 23:16:19;;;;;;;9.02;4.95;;;;;;;;;;8392470;28;20145;-86
2023/05/31 23:20:22;;;;;;;10.82;5.10;;;;;;;;;;8396291;28;20064;-85
2023/05/31 23:24:25;;;;;;;8.73;5.32;;;;;;;;;;8396517;28;20067;-87
2023/05/31 23:28:28;;;;;;;13.93;5.78;;;;;;;;;;8396394;28;20124;-86
2023/05/31 23:32:32;;;;;;;10.48;6.60;;;;;;;;;;8396475;28;20046;-87
2023/05/31 23:36:37;;;;;;;13.43;5.70;;;;;;;;;;8396517;28;20134;-86
2023/05/31 23:40:40;;;;;;;9.60;4.88;;;;;;;;;;8378588;28;20060;-85
2023/05/31 23:44:43;;;;;;;9.95;5.13;;;;;;;;;;8396024;28;20098;-86
2023/05/31 23:48:48;;;;;;;8.27;4.75;;;;;;;;;;8395727;28;20053;-85
2023/05/31 23:52:51;;;;;;;7.60;4.70;;;;;;;;;;8366214;28;20049;-85
2023/05/31 23:56:54;;;;;;;11.13;5.63;;;;;;;;;;8369272;28;20084;-86
